SLRY  Reyes Airport

Add Bookmark

Reyes, Bolivia

Status IATA
Operational REY
Latitude Longitude
14° 18' 15" S 67° 21' 12" W
-14.304400 -67.353401
Local (DST -4) UTC (GMT -4)
Nov 1, 2014 09:46 Nov 1, 2014 13:46
Sunrise-Sunset Local UTC
Begin Civil Twilight 05:30 09:30
Sunrise 05:52 09:52
Sunset 06:33 22:33
End Civil Twilight 06:55 22:55

Current Weather

METAR Observed VFR
SLRY 011300Z 32005KT 9999 SCT013 BKN200 28/24 Q1012 Sat, Nov 1, 2014 @ 13:00 UTC
(46 Minutes ago)
Visual Flight Rules
Wind Visibility Clouds Conditions
320° at 5 knots (9 kph) 10 km or more
  • Scattered at 1,300' AGL
  • Broken at 20,000' AGL
  • No significant weather
Temperatures Readings Precipitation
Current Temp 28°C (82°F)
Dewpoint 24°C (75°F)
Heat Index 32°C (89°F)
Humidity 79%
Altimeter 29.88"Hg
Sea Level Pressure 1012mb
Field Elevation 918.64'
None Recorded

Additional weather within a 92.6km radius of SLRY

Map ICAO Location
SLRQ 20.7km S (229°)

24 Hour Weather History

Loading
-

24 Hour Weather Graphs

Loading
-

CheckWX.com is intended as a tool to help pilots better visualize weather data. It is not intended as a substitute for an official weather briefing obtained from a Flight Service Station. CheckWX.com does not meet the FAA requirements for an official pre-flight weather briefing. Therefore, it's important that pilots still call and obtain an official FSS pre-flight weather briefing.